Time;durP1;ratioP1;P1;durP2;ratioP2;P2;SDS_P1;SDS_P2;PMS_P1;PMS_P2;Temp;Humidity;BMP_temperature;BMP_pressure;BME280_temperature;BME280_humidity;BME280_pressure;Samples;Min_cycle;Max_cycle;Signal;HPM_P1;HPM_P2
2022/02/22 00:00:26;;;;;;;7.00;1.40;;;;;;;;;;5097311;28;20050;-68
2022/02/22 00:02:54;;;;;;;5.93;1.58;;;;;;;;;;5115474;28;20475;-68
2022/02/22 00:05:25;;;;;;;7.70;1.45;;;;;;;;;;5115184;28;20571;-69
2022/02/22 00:07:53;;;;;;;8.88;1.63;;;;;;;;;;5115487;28;20045;-69
2022/02/22 00:10:22;;;;;;;7.68;2.13;;;;;;;;;;5080546;28;20044;-69
2022/02/22 00:12:49;;;;;;;7.45;1.67;;;;;;;;;;5096849;28;20421;-75
2022/02/22 00:15:17;;;;;;;6.25;1.65;;;;;;;;;;5115461;28;20077;-69
2022/02/22 00:17:45;;;;;;;5.93;1.70;;;;;;;;;;5096633;28;20058;-72
2022/02/22 00:20:13;;;;;;;10.20;1.70;;;;;;;;;;5096575;28;20070;-74
2022/02/22 00:22:41;;;;;;;5.93;1.65;;;;;;;;;;5114979;28;20413;-75
2022/02/22 00:25:11;;;;;;;9.73;1.52;;;;;;;;;;5109615;28;20036;-70
2022/02/22 00:27:40;;;;;;;5.35;1.30;;;;;;;;;;5076391;28;20059;-75
2022/02/22 00:30:08;;;;;;;8.02;1.60;;;;;;;;;;5093882;28;20035;-72
2022/02/22 00:32:39;;;;;;;7.85;1.63;;;;;;;;;;5106755;28;20036;-69
2022/02/22 00:35:11;;;;;;;6.55;1.70;;;;;;;;;;5114071;28;20119;-74
2022/02/22 00:37:39;;;;;;;5.47;2.05;;;;;;;;;;5095093;28;20067;-74
2022/02/22 00:40:07;;;;;;;6.10;1.70;;;;;;;;;;5114689;28;20498;-74
2022/02/22 00:42:34;;;;;;;7.95;1.50;;;;;;;;;;5114838;28;20548;-73
2022/02/22 00:45:02;;;;;;;7.53;1.67;;;;;;;;;;5096902;28;20395;-69
2022/02/22 00:47:30;;;;;;;7.65;1.58;;;;;;;;;;5114679;28;20109;-70
2022/02/22 00:49:57;;;;;;;9.57;1.80;;;;;;;;;;5096821;28;20043;-69
2022/02/22 00:52:25;;;;;;;9.57;1.88;;;;;;;;;;5114508;28;20499;-73
2022/02/22 00:54:54;;;;;;;8.32;1.55;;;;;;;;;;5096466;28;20036;-69
2022/02/22 00:57:22;;;;;;;6.38;1.35;;;;;;;;;;5114998;28;20035;-69
2022/02/22 00:59:49;;;;;;;4.47;1.30;;;;;;;;;;5096767;28;20036;-70
2022/02/22 01:02:17;;;;;;;8.88;1.60;;;;;;;;;;5079622;28;20036;-69
2022/02/22 01:04:44;;;;;;;6.40;1.30;;;;;;;;;;5114641;28;20059;-69
2022/02/22 01:07:16;;;;;;;7.47;1.38;;;;;;;;;;5114969;28;20035;-73
2022/02/22 01:09:44;;;;;;;8.70;1.38;;;;;;;;;;5114600;28;20036;-71
2022/02/22 01:12:12;;;;;;;5.25;1.42;;;;;;;;;;5114197;28;20502;-73
2022/02/22 01:14:40;;;;;;;5.38;1.50;;;;;;;;;;5114532;28;20542;-69
2022/02/22 01:17:08;;;;;;;7.25;1.67;;;;;;;;;;5114005;28;20038;-70
2022/02/22 01:19:36;;;;;;;3.70;1.38;;;;;;;;;;5096261;28;20052;-69
2022/02/22 01:22:03;;;;;;;7.93;1.70;;;;;;;;;;5096192;28;20493;-70
2022/02/22 01:24:32;;;;;;;6.80;1.48;;;;;;;;;;5096026;28;20132;-71
2022/02/22 01:27:01;;;;;;;4.30;1.30;;;;;;;;;;5096706;28;20035;-69
2022/02/22 01:29:29;;;;;;;10.80;2.10;;;;;;;;;;5095803;28;20123;-69
2022/02/22 01:31:56;;;;;;;6.90;1.73;;;;;;;;;;5114077;28;20035;-69
2022/02/22 01:34:24;;;;;;;7.55;1.75;;;;;;;;;;5095850;28;20509;-69
2022/02/22 01:36:51;;;;;;;11.85;2.08;;;;;;;;;;5114006;28;20039;-71
2022/02/22 01:39:19;;;;;;;8.20;1.98;;;;;;;;;;5079048;28;20047;-69
2022/02/22 01:41:46;;;;;;;3.63;1.25;;;;;;;;;;5113648;28;20395;-71
2022/02/22 01:44:14;;;;;;;5.63;1.75;;;;;;;;;;5114223;28;20475;-69
2022/02/22 01:46:53;;;;;;;10.65;1.58;;;;;;;;;;5095829;28;20043;-73
2022/02/22 01:49:20;;;;;;;9.73;2.13;;;;;;;;;;5095731;28;20082;-69
2022/02/22 01:51:48;;;;;;;5.97;1.67;;;;;;;;;;5113524;28;20050;-70
2022/02/22 01:54:15;;;;;;;7.57;2.00;;;;;;;;;;5113479;28;20039;-69
2022/02/22 01:56:43;;;;;;;7.80;1.40;;;;;;;;;;5113938;28;20039;-69
2022/02/22 01:59:11;;;;;;;6.80;1.15;;;;;;;;;;5113597;28;20390;-70
2022/02/22 02:01:39;;;;;;;8.20;1.67;;;;;;;;;;5095601;28;20040;-69
2022/02/22 02:04:07;;;;;;;6.15;1.63;;;;;;;;;;5113832;28;20031;-70
2022/02/22 02:06:35;;;;;;;7.18;1.60;;;;;;;;;;5113114;28;20486;-70
2022/02/22 02:09:02;;;;;;;6.43;1.70;;;;;;;;;;5113894;28;20042;-73
2022/02/22 02:11:30;;;;;;;6.18;1.65;;;;;;;;;;5113169;28;20043;-70
2022/02/22 02:13:57;;;;;;;11.90;1.90;;;;;;;;;;5094981;28;20127;-70
2022/02/22 02:16:25;;;;;;;6.38;1.17;;;;;;;;;;5113526;28;20057;-73
2022/02/22 02:18:52;;;;;;;11.55;1.95;;;;;;;;;;5113550;28;20062;-71
2022/02/22 02:21:20;;;;;;;8.10;1.70;;;;;;;;;;5094987;28;20068;-69
2022/02/22 02:23:48;;;;;;;4.30;1.20;;;;;;;;;;5113283;28;20047;-69
2022/02/22 02:26:17;;;;;;;6.03;1.70;;;;;;;;;;5113314;28;20409;-70
2022/02/22 02:28:45;;;;;;;6.28;1.52;;;;;;;;;;5113545;28;20044;-73
2022/02/22 02:31:12;;;;;;;4.22;1.02;;;;;;;;;;5085287;28;20052;-71
2022/02/22 02:33:40;;;;;;;3.85;1.15;;;;;;;;;;5092622;28;20132;-69
2022/02/22 02:36:07;;;;;;;5.28;0.98;;;;;;;;;;5092905;28;20115;-72
2022/02/22 02:38:35;;;;;;;5.13;1.05;;;;;;;;;;5093122;28;20039;-69
2022/02/22 02:41:05;;;;;;;6.88;1.02;;;;;;;;;;5092692;28;20042;-69
2022/02/22 02:43:33;;;;;;;6.70;1.13;;;;;;;;;;5074632;28;20050;-69
2022/02/22 02:46:03;;;;;;;4.63;1.30;;;;;;;;;;5092860;28;20490;-73
2022/02/22 02:48:35;;;;;;;6.32;1.15;;;;;;;;;;5093028;28;20115;-70
2022/02/22 02:51:02;;;;;;;4.75;0.98;;;;;;;;;;5093094;28;20070;-69
2022/02/22 02:53:32;;;;;;;5.35;1.08;;;;;;;;;;5074291;28;20040;-70
2022/02/22 02:56:00;;;;;;;6.63;1.33;;;;;;;;;;5074716;28;20476;-69
2022/02/22 02:58:28;;;;;;;5.28;1.08;;;;;;;;;;5093051;28;20040;-69
2022/02/22 03:00:55;;;;;;;7.75;1.48;;;;;;;;;;5096876;28;20040;-69
2022/02/22 03:03:23;;;;;;;4.40;1.00;;;;;;;;;;5078568;28;20448;-70
2022/02/22 03:05:51;;;;;;;7.32;1.25;;;;;;;;;;5078165;28;20039;-73
2022/02/22 03:08:18;;;;;;;4.03;0.93;;;;;;;;;;5096318;28;20066;-72
2022/02/22 03:10:46;;;;;;;7.38;1.02;;;;;;;;;;5096184;28;20046;-69
2022/02/22 03:13:14;;;;;;;11.10;1.85;;;;;;;;;;5096007;28;20127;-73
2022/02/22 03:15:42;;;;;;;4.40;1.05;;;;;;;;;;5096083;28;20111;-73
2022/02/22 03:18:10;;;;;;;6.07;1.48;;;;;;;;;;5061020;28;20394;-74
2022/02/22 03:20:38;;;;;;;3.25;0.93;;;;;;;;;;5096261;28;20032;-69
2022/02/22 03:23:05;;;;;;;8.00;1.92;;;;;;;;;;5077716;28;20407;-69
2022/02/22 03:25:33;;;;;;;6.25;2.08;;;;;;;;;;5077908;28;20090;-69
2022/02/22 03:28:04;;;;;;;4.47;1.30;;;;;;;;;;5095982;28;20046;-69
2022/02/22 03:30:32;;;;;;;7.75;1.88;;;;;;;;;;5095396;28;20044;-70
2022/02/22 03:33:00;;;;;;;9.60;2.15;;;;;;;;;;5095768;28;20046;-69
2022/02/22 03:35:28;;;;;;;10.18;1.73;;;;;;;;;;5078098;28;20464;-69
2022/02/22 03:37:56;;;;;;;7.47;1.42;;;;;;;;;;5095878;28;20044;-69
2022/02/22 03:40:23;;;;;;;6.18;1.88;;;;;;;;;;5077835;28;20123;-69
2022/02/22 03:42:51;;;;;;;10.38;1.95;;;;;;;;;;5095672;28;20115;-69
2022/02/22 03:45:18;;;;;;;7.95;1.60;;;;;;;;;;5095896;28;20047;-69
2022/02/22 03:47:46;;;;;;;5.43;1.55;;;;;;;;;;5095813;28;20037;-69
2022/02/22 03:50:17;;;;;;;12.82;2.38;;;;;;;;;;5077556;28;20491;-69
2022/02/22 03:52:45;;;;;;;13.32;2.25;;;;;;;;;;5095406;28;20071;-69
2022/02/22 03:55:13;;;;;;;9.90;2.10;;;;;;;;;;5060707;28;20044;-69
2022/02/22 03:57:42;;;;;;;12.65;2.28;;;;;;;;;;5077480;28;20036;-69
2022/02/22 04:00:12;;;;;;;9.60;2.05;;;;;;;;;;5077675;28;20070;-72
2022/02/22 04:02:40;;;;;;;17.83;2.67;;;;;;;;;;5060621;28;20044;-69
2022/02/22 04:05:10;;;;;;;14.73;2.58;;;;;;;;;;5077710;28;20046;-69
2022/02/22 04:07:38;;;;;;;12.43;2.05;;;;;;;;;;5077499;28;20114;-69
2022/02/22 04:10:06;;;;;;;9.02;2.10;;;;;;;;;;5094975;28;20050;-69
2022/02/22 04:12:34;;;;;;;13.02;2.20;;;;;;;;;;5076950;28;20052;-73
2022/02/22 04:15:01;;;;;;;17.10;2.90;;;;;;;;;;5076878;28;20131;-69
2022/02/22 04:17:29;;;;;;;14.70;2.15;;;;;;;;;;5104798;28;20059;-69
2022/02/22 04:19:57;;;;;;;16.95;2.28;;;;;;;;;;5115369;28;20043;-69
2022/02/22 04:22:24;;;;;;;9.25;2.05;;;;;;;;;;5115171;28;20063;-69
2022/02/22 04:24:52;;;;;;;12.40;2.40;;;;;;;;;;5096904;28;20080;-69
2022/02/22 04:27:20;;;;;;;10.82;2.33;;;;;;;;;;5115448;28;20089;-73
2022/02/22 04:29:50;;;;;;;4.05;1.20;;;;;;;;;;5097017;28;20046;-71
2022/02/22 04:32:19;;;;;;;2.03;1.13;;;;;;;;;;5115150;28;20040;-69
2022/02/22 04:34:49;;;;;;;7.47;0.95;;;;;;;;;;5096787;28;20040;-69
2022/02/22 04:37:17;;;;;;;3.25;0.88;;;;;;;;;;5115148;28;20036;-71
2022/02/22 04:39:45;;;;;;;5.80;1.00;;;;;;;;;;5096811;28;20422;-73
2022/02/22 04:42:13;;;;;;;2.97;0.70;;;;;;;;;;5096749;28;20046;-71
2022/02/22 04:44:43;;;;;;;3.15;0.75;;;;;;;;;;5097039;28;20134;-71
2022/02/22 04:47:12;;;;;;;6.18;1.00;;;;;;;;;;5080028;28;20044;-72
2022/02/22 04:49:39;;;;;;;4.72;1.20;;;;;;;;;;5096526;28;20048;-71
2022/02/22 04:52:09;;;;;;;3.53;1.10;;;;;;;;;;5096466;28;20043;-69
2022/02/22 04:54:38;;;;;;;2.53;0.93;;;;;;;;;;5114189;28;20077;-73
2022/02/22 04:57:06;;;;;;;5.75;1.25;;;;;;;;;;5114709;28;20073;-69
2022/02/22 04:59:34;;;;;;;1.70;0.90;;;;;;;;;;5096563;28;20043;-72
2022/02/22 05:02:04;;;;;;;6.03;1.23;;;;;;;;;;5096250;28;20042;-70
2022/02/22 05:04:39;;;;;;;7.63;1.60;;;;;;;;;;5080399;28;20069;-75
2022/02/22 05:07:07;;;;;;;5.25;1.05;;;;;;;;;;5114475;28;20044;-70
2022/02/22 05:09:36;;;;;;;7.28;1.27;;;;;;;;;;5096578;28;20039;-71
2022/02/22 05:12:04;;;;;;;4.32;1.23;;;;;;;;;;5072227;28;20055;-71
2022/02/22 05:14:33;;;;;;;3.35;1.05;;;;;;;;;;5088861;28;20558;-73
2022/02/22 05:17:02;;;;;;;5.38;1.17;;;;;;;;;;5073651;28;20072;-74
2022/02/22 05:19:30;;;;;;;3.17;1.10;;;;;;;;;;5073586;28;20037;-69
2022/02/22 05:21:57;;;;;;;11.15;1.52;;;;;;;;;;5073314;28;20068;-73
2022/02/22 05:24:25;;;;;;;6.40;2.08;;;;;;;;;;5089449;28;20415;-70
2022/02/22 05:26:52;;;;;;;7.72;1.88;;;;;;;;;;5089226;28;20079;-69
2022/02/22 05:29:20;;;;;;;11.15;2.03;;;;;;;;;;5073013;28;20522;-69
2022/02/22 05:31:47;;;;;;;8.63;1.83;;;;;;;;;;5070991;28;20128;-69
2022/02/22 05:34:15;;;;;;;9.57;1.60;;;;;;;;;;5088888;28;20440;-70
2022/02/22 05:36:43;;;;;;;6.22;1.63;;;;;;;;;;5073390;28;20111;-71
2022/02/22 05:39:10;;;;;;;11.70;2.00;;;;;;;;;;5089374;28;20151;-69
2022/02/22 05:41:38;;;;;;;13.98;2.30;;;;;;;;;;5071802;28;20511;-69
2022/02/22 05:44:05;;;;;;;12.82;2.20;;;;;;;;;;5073582;28;20071;-69
2022/02/22 05:46:34;;;;;;;11.20;3.20;;;;;;;;;;5073415;28;20048;-69
2022/02/22 05:49:03;;;;;;;10.23;2.35;;;;;;;;;;5073190;28;20040;-69
2022/02/22 05:51:30;;;;;;;12.07;2.40;;;;;;;;;;5088466;28;20053;-69
2022/02/22 05:53:58;;;;;;;14.35;2.42;;;;;;;;;;5072690;28;20582;-69
2022/02/22 05:56:28;;;;;;;14.75;2.85;;;;;;;;;;5088375;28;20047;-69
2022/02/22 05:59:02;;;;;;;21.67;3.10;;;;;;;;;;5072989;28;20459;-70
2022/02/22 06:01:31;;;;;;;23.42;4.38;;;;;;;;;;5088671;28;20097;-72
2022/02/22 06:03:59;;;;;;;15.95;3.10;;;;;;;;;;5088544;28;20395;-69
2022/02/22 06:06:31;;;;;;;21.23;2.92;;;;;;;;;;5072631;28;20040;-68
2022/02/22 06:09:05;;;;;;;17.02;3.35;;;;;;;;;;5088462;28;20041;-72
2022/02/22 06:11:35;;;;;;;15.65;2.65;;;;;;;;;;5091294;28;20449;-68
2022/02/22 06:14:02;;;;;;;25.08;4.40;;;;;;;;;;5113552;28;20039;-72
2022/02/22 06:16:30;;;;;;;17.02;3.25;;;;;;;;;;5094720;28;20130;-72
2022/02/22 06:18:58;;;;;;;19.42;3.40;;;;;;;;;;5094891;28;20051;-70
2022/02/22 06:21:25;;;;;;;15.82;3.17;;;;;;;;;;5113005;28;20040;-72
2022/02/22 06:23:53;;;;;;;24.25;3.03;;;;;;;;;;5113381;28;20044;-73
2022/02/22 06:26:21;;;;;;;14.63;3.38;;;;;;;;;;5094186;28;20490;-72
2022/02/22 06:28:50;;;;;;;20.77;3.47;;;;;;;;;;5094693;28;20039;-69
2022/02/22 06:31:18;;;;;;;19.05;4.35;;;;;;;;;;5093365;28;20043;-69
2022/02/22 06:33:47;;;;;;;16.95;3.60;;;;;;;;;;5095154;28;20055;-70
2022/02/22 06:36:15;;;;;;;17.52;3.70;;;;;;;;;;5116360;28;20039;-73
2022/02/22 06:38:48;;;;;;;11.90;2.72;;;;;;;;;;5117684;28;20059;-68
2022/02/22 06:41:16;;;;;;;20.70;3.70;;;;;;;;;;5117074;28;20490;-69
2022/02/22 06:43:43;;;;;;;18.65;3.78;;;;;;;;;;5099121;28;20160;-68
2022/02/22 06:46:11;;;;;;;15.27;3.10;;;;;;;;;;5117264;28;20097;-68
2022/02/22 06:48:38;;;;;;;13.75;3.85;;;;;;;;;;5098876;28;20056;-68
2022/02/22 06:51:07;;;;;;;12.02;3.35;;;;;;;;;;5097630;28;20040;-72
2022/02/22 06:53:35;;;;;;;18.38;4.20;;;;;;;;;;5113337;28;20067;-72
2022/02/22 06:56:03;;;;;;;19.50;4.15;;;;;;;;;;5116181;28;20039;-69
2022/02/22 06:58:38;;;;;;;18.85;3.38;;;;;;;;;;5097003;28;20048;-68
2022/02/22 07:01:05;;;;;;;17.05;3.60;;;;;;;;;;5116426;28;20458;-68
2022/02/22 07:03:33;;;;;;;16.92;4.15;;;;;;;;;;5098238;28;20036;-68
2022/02/22 07:06:03;;;;;;;19.88;3.50;;;;;;;;;;5115297;28;20428;-68
2022/02/22 07:08:33;;;;;;;22.80;4.13;;;;;;;;;;5098321;28;20048;-72
2022/02/22 07:11:00;;;;;;;16.70;3.45;;;;;;;;;;5097817;28;20059;-69
2022/02/22 07:13:28;;;;;;;22.05;3.90;;;;;;;;;;5097371;28;20394;-69
2022/02/22 07:15:55;;;;;;;17.85;3.40;;;;;;;;;;5080175;28;20044;-71
2022/02/22 07:18:23;;;;;;;15.32;2.97;;;;;;;;;;5115006;28;20457;-68
2022/02/22 07:20:51;;;;;;;21.48;3.08;;;;;;;;;;5116639;28;20039;-68
2022/02/22 07:23:18;;;;;;;10.05;2.65;;;;;;;;;;5080483;28;20057;-69
2022/02/22 07:25:45;;;;;;;15.80;3.25;;;;;;;;;;5084830;22;20053;-71
2022/02/22 07:28:13;;;;;;;17.60;3.55;;;;;;;;;;5052264;28;20127;-68
2022/02/22 07:30:41;;;;;;;16.08;2.95;;;;;;;;;;5055271;28;20037;-70
2022/02/22 07:33:09;;;;;;;19.92;3.35;;;;;;;;;;5041662;28;20046;-71
2022/02/22 07:35:37;;;;;;;12.38;3.10;;;;;;;;;;5035188;28;20099;-68
2022/02/22 07:38:04;;;;;;;12.38;2.92;;;;;;;;;;5035122;28;20150;-70
2022/02/22 07:40:32;;;;;;;13.38;2.90;;;;;;;;;;5035716;28;20401;-68
2022/02/22 07:43:01;;;;;;;18.30;3.25;;;;;;;;;;5035226;28;20471;-69
2022/02/22 07:45:29;;;;;;;15.27;2.88;;;;;;;;;;5035103;28;20049;-69
2022/02/22 07:47:57;;;;;;;8.88;2.50;;;;;;;;;;5035477;28;20220;-71
2022/02/22 07:50:24;;;;;;;20.33;3.53;;;;;;;;;;5035268;28;20053;-71
2022/02/22 07:52:54;;;;;;;12.10;3.00;;;;;;;;;;5034049;28;20046;-68
2022/02/22 07:55:22;;;;;;;15.10;3.13;;;;;;;;;;5033612;28;20046;-68
2022/02/22 07:57:49;;;;;;;17.73;4.20;;;;;;;;;;5035404;28;20056;-71
2022/02/22 08:00:23;;;;;;;12.05;3.13;;;;;;;;;;5034191;28;20037;-72
2022/02/22 08:02:54;;;;;;;8.88;2.83;;;;;;;;;;5035161;28;20065;-71
2022/02/22 08:05:22;;;;;;;11.13;2.80;;;;;;;;;;5034883;28;20053;-71
2022/02/22 08:07:50;;;;;;;13.85;3.83;;;;;;;;;;5034828;28;20054;-72
2022/02/22 08:10:23;;;;;;;12.88;3.38;;;;;;;;;;5034983;28;20045;-69
2022/02/22 08:12:51;;;;;;;14.18;3.67;;;;;;;;;;5035050;28;20485;-71
2022/02/22 08:15:19;;;;;;;14.88;3.22;;;;;;;;;;5034712;28;20038;-69
2022/02/22 08:17:46;;;;;;;9.40;3.15;;;;;;;;;;5034358;28;20055;-71
2022/02/22 08:20:14;;;;;;;13.40;3.38;;;;;;;;;;5035054;28;20049;-72
2022/02/22 08:22:41;;;;;;;11.25;2.70;;;;;;;;;;5034970;28;20477;-72
2022/02/22 08:25:11;;;;;;;9.35;2.58;;;;;;;;;;5034845;28;20053;-69
2022/02/22 08:27:39;;;;;;;9.02;1.98;;;;;;;;;;5039874;28;20523;-71
2022/02/22 08:30:07;;;;;;;12.23;2.90;;;;;;;;;;5043102;28;20496;-71
2022/02/22 08:32:35;;;;;;;7.60;2.20;;;;;;;;;;5044998;28;20148;-69
2022/02/22 08:35:05;;;;;;;10.45;2.80;;;;;;;;;;5041784;28;20067;-71
2022/02/22 08:37:33;;;;;;;9.73;2.30;;;;;;;;;;5043055;28;20037;-71
2022/02/22 08:40:03;;;;;;;8.80;2.25;;;;;;;;;;5039014;28;20044;-68
2022/02/22 08:42:36;;;;;;;14.48;2.33;;;;;;;;;;5044551;28;20069;-69
2022/02/22 08:45:21;;;;;;;10.32;2.20;;;;;;;;;;5041921;28;20037;-73
2022/02/22 08:47:48;;;;;;;4.30;0.95;;;;;;;;;;5041068;28;20172;-72
2022/02/22 08:50:16;;;;;;;7.72;1.20;;;;;;;;;;5044262;28;20452;-70
2022/02/22 08:52:44;;;;;;;4.13;1.17;;;;;;;;;;5039284;28;20049;-73
2022/02/22 08:55:12;;;;;;;4.63;1.20;;;;;;;;;;5033893;28;20052;-72
2022/02/22 08:57:39;;;;;;;3.50;1.20;;;;;;;;;;5033390;28;20540;-69
2022/02/22 09:00:10;;;;;;;2.40;1.33;;;;;;;;;;5033958;28;20076;-69
2022/02/22 09:02:38;;;;;;;3.95;1.15;;;;;;;;;;5034208;28;20037;-70
2022/02/22 09:05:08;;;;;;;3.95;1.20;;;;;;;;;;5043362;28;20087;-69
2022/02/22 09:07:36;;;;;;;5.55;1.10;;;;;;;;;;5043831;28;20052;-69
2022/02/22 09:10:06;;;;;;;2.33;0.98;;;;;;;;;;5042844;28;20046;-72
2022/02/22 09:12:35;;;;;;;3.95;1.30;;;;;;;;;;5044655;28;20079;-70
2022/02/22 09:15:05;;;;;;;2.92;1.20;;;;;;;;;;5052363;28;20090;-73
2022/02/22 09:17:35;;;;;;;4.13;1.30;;;;;;;;;;5045569;28;20087;-69
2022/02/22 09:20:09;;;;;;;3.90;1.00;;;;;;;;;;5033086;28;20396;-72
2022/02/22 09:22:38;;;;;;;4.97;2.05;;;;;;;;;;5031595;28;20091;-72
2022/02/22 09:25:10;;;;;;;12.65;2.28;;;;;;;;;;5032923;28;20045;-73
2022/02/22 09:27:38;;;;;;;5.68;1.67;;;;;;;;;;5030285;28;20045;-73
2022/02/22 09:30:07;;;;;;;7.40;1.60;;;;;;;;;;5032732;28;20065;-69
2022/02/22 09:32:35;;;;;;;3.75;1.40;;;;;;;;;;5032959;28;20041;-72
2022/02/22 09:35:03;;;;;;;7.05;1.20;;;;;;;;;;5032886;28;20037;-73
2022/02/22 09:37:31;;;;;;;8.15;1.60;;;;;;;;;;5032889;28;20103;-73
2022/02/22 09:39:58;;;;;;;3.95;1.45;;;;;;;;;;5029972;28;20103;-69
2022/02/22 09:42:27;;;;;;;7.00;1.30;;;;;;;;;;5032501;28;20037;-72
2022/02/22 09:44:55;;;;;;;4.53;1.40;;;;;;;;;;5032783;28;20128;-69
2022/02/22 09:47:23;;;;;;;6.30;1.55;;;;;;;;;;5032497;28;20037;-73
2022/02/22 09:49:58;;;;;;;3.03;1.10;;;;;;;;;;5032431;28;20500;-69
2022/02/22 09:52:26;;;;;;;4.45;1.30;;;;;;;;;;5032656;28;20068;-69
2022/02/22 09:54:53;;;;;;;9.40;1.55;;;;;;;;;;5031973;28;20041;-72
2022/02/22 09:57:21;;;;;;;1.63;1.02;;;;;;;;;;5031542;28;20045;-73
2022/02/22 09:59:49;;;;;;;4.32;1.42;;;;;;;;;;5032586;28;20477;-69
2022/02/22 10:02:16;;;;;;;8.63;1.40;;;;;;;;;;5032099;28;20124;-73
2022/02/22 10:04:45;;;;;;;5.68;1.30;;;;;;;;;;5032503;28;20112;-69
2022/02/22 10:07:18;;;;;;;5.40;1.52;;;;;;;;;;5031982;28;20044;-71
2022/02/22 10:09:59;;;;;;;6.43;1.45;;;;;;;;;;5032278;28;20099;-74
2022/02/22 10:12:31;;;;;;;4.38;1.50;;;;;;;;;;5030782;28;20140;-70
2022/02/22 10:14:59;;;;;;;4.90;1.45;;;;;;;;;;5031780;28;20386;-72
2022/02/22 10:17:27;;;;;;;6.53;2.20;;;;;;;;;;5032027;28;20496;-71
2022/02/22 10:20:01;;;;;;;8.85;1.80;;;;;;;;;;5032040;28;20038;-70
2022/02/22 10:22:30;;;;;;;6.35;1.60;;;;;;;;;;5032112;28;20136;-70
2022/02/22 10:25:09;;;;;;;2.90;1.50;;;;;;;;;;5031792;28;20053;-71
2022/02/22 10:27:43;;;;;;;11.05;2.05;;;;;;;;;;5032253;28;20461;-73
2022/02/22 10:30:27;;;;;;;9.00;2.30;;;;;;;;;;5012545;28;20069;-73
2022/02/22 10:32:57;;;;;;;14.43;2.95;;;;;;;;;;5011435;28;20053;-71
2022/02/22 10:35:45;;;;;;;7.82;3.10;;;;;;;;;;5012693;28;20129;-73
2022/02/22 10:38:21;;;;;;;10.30;3.20;;;;;;;;;;5023659;28;20049;-69
2022/02/22 10:41:05;;;;;;;10.48;3.33;;;;;;;;;;5021712;28;20088;-72
2022/02/22 10:43:35;;;;;;;9.52;3.70;;;;;;;;;;5030449;28;20033;-69
2022/02/22 10:46:07;;;;;;;9.40;3.33;;;;;;;;;;5029643;28;20046;-74
2022/02/22 10:48:37;;;;;;;7.47;3.03;;;;;;;;;;5032230;28;20065;-71
2022/02/22 10:51:06;;;;;;;6.50;2.35;;;;;;;;;;5030827;28;20124;-69
2022/02/22 10:53:43;;;;;;;5.97;2.58;;;;;;;;;;5032050;28;20111;-69
2022/02/22 10:56:13;;;;;;;9.13;3.00;;;;;;;;;;5032476;28;20037;-72
2022/02/22 10:58:43;;;;;;;7.70;2.35;;;;;;;;;;5032486;28;20053;-70
2022/02/22 11:01:13;;;;;;;7.40;2.33;;;;;;;;;;5032335;28;20056;-71
2022/02/22 11:03:42;;;;;;;6.22;2.10;;;;;;;;;;5032617;28;20042;-69
2022/02/22 11:06:14;;;;;;;5.95;2.40;;;;;;;;;;5032458;28;20041;-69
2022/02/22 11:08:46;;;;;;;12.77;3.80;;;;;;;;;;5032253;28;20627;-72
2022/02/22 11:11:45;;;;;;;6.15;2.13;;;;;;;;;;5032254;28;20045;-71
2022/02/22 11:14:27;;;;;;;6.00;1.52;;;;;;;;;;5031541;28;20068;-72
2022/02/22 11:16:56;;;;;;;5.70;1.65;;;;;;;;;;5030716;28;20045;-69
2022/02/22 11:19:28;;;;;;;4.82;1.70;;;;;;;;;;5032254;28;20107;-69
2022/02/22 11:21:57;;;;;;;4.05;1.50;;;;;;;;;;5034659;28;20037;-72
2022/02/22 11:24:25;;;;;;;7.15;1.88;;;;;;;;;;5035587;28;20044;-72
2022/02/22 11:26:55;;;;;;;6.53;2.10;;;;;;;;;;5035276;28;20054;-69
2022/02/22 11:29:25;;;;;;;;;;;;;;;;;;5031696;28;20520;-69
2022/02/22 11:32:00;;;;;;;9.27;2.10;;;;;;;;;;5015431;28;20292;-73
2022/02/22 11:34:31;;;;;;;13.38;2.38;;;;;;;;;;5015557;28;20046;-69
2022/02/22 11:37:02;;;;;;;8.75;2.50;;;;;;;;;;5015800;28;20097;-71
2022/02/22 11:39:30;;;;;;;8.02;1.98;;;;;;;;;;5015781;28;20041;-72
2022/02/22 11:41:59;;;;;;;5.75;1.80;;;;;;;;;;5015497;28;20088;-73
2022/02/22 11:44:29;;;;;;;9.85;2.85;;;;;;;;;;5015013;28;20046;-71
2022/02/22 11:46:56;;;;;;;5.22;1.80;;;;;;;;;;5013802;28;20058;-72
2022/02/22 11:49:26;;;;;;;7.30;1.75;;;;;;;;;;5015080;28;20038;-71
2022/02/22 11:52:10;;;;;;;10.52;2.08;;;;;;;;;;5015428;28;20049;-72
2022/02/22 11:54:38;;;;;;;8.32;2.38;;;;;;;;;;5015306;28;20042;-71
2022/02/22 11:57:09;;;;;;;7.93;2.42;;;;;;;;;;5015456;28;20042;-68
2022/02/22 12:00:00;;;;;;;6.18;2.10;;;;;;;;;;5015480;28;20050;-69
2022/02/22 12:02:42;;;;;;;8.65;2.20;;;;;;;;;;5015220;28;20050;-72
2022/02/22 12:05:24;;;;;;;12.35;2.80;;;;;;;;;;5015543;28;20144;-68
2022/02/22 12:08:03;;;;;;;10.93;2.20;;;;;;;;;;5014381;28;20516;-73
2022/02/22 12:10:32;;;;;;;10.55;2.15;;;;;;;;;;5014784;28;20050;-68
2022/02/22 12:13:06;;;;;;;8.10;2.63;;;;;;;;;;5015208;28;20045;-73
2022/02/22 12:15:34;;;;;;;7.07;1.92;;;;;;;;;;5015023;28;20482;-71
2022/02/22 12:18:02;;;;;;;6.55;2.38;;;;;;;;;;5014407;28;20413;-70
2022/02/22 12:20:30;;;;;;;7.50;2.13;;;;;;;;;;5015030;28;20065;-68
2022/02/22 12:23:00;;;;;;;8.02;2.92;;;;;;;;;;5015077;28;20042;-68
2022/02/22 12:25:28;;;;;;;6.85;2.55;;;;;;;;;;5014496;28;20052;-69
2022/02/22 12:28:00;;;;;;;5.28;1.92;;;;;;;;;;5013349;28;20050;-69
2022/02/22 12:30:30;;;;;;;7.78;2.28;;;;;;;;;;5014267;28;20046;-72
2022/02/22 12:32:58;;;;;;;13.05;2.30;;;;;;;;;;5014676;28;20128;-68
2022/02/22 12:35:42;;;;;;;6.07;2.15;;;;;;;;;;5014818;28;20092;-71
2022/02/22 12:38:16;;;;;;;6.18;2.33;;;;;;;;;;5014718;28;20046;-68
2022/02/22 12:40:44;;;;;;;10.80;3.30;;;;;;;;;;5014398;28;20042;-71
2022/02/22 12:43:32;;;;;;;7.07;1.95;;;;;;;;;;5014791;28;20444;-69
2022/02/22 12:45:59;;;;;;;10.77;2.42;;;;;;;;;;5029918;28;20067;-72
2022/02/22 12:48:28;;;;;;;22.40;2.70;;;;;;;;;;5034375;28;20053;-72
2022/02/22 12:50:56;;;;;;;6.38;2.10;;;;;;;;;;5034276;28;20128;-69
2022/02/22 12:53:27;;;;;;;8.07;2.63;;;;;;;;;;5034058;28;20052;-71
2022/02/22 12:55:55;;;;;;;5.93;2.00;;;;;;;;;;5033767;28;20048;-69
2022/02/22 12:58:37;;;;;;;7.70;2.25;;;;;;;;;;5032762;28;20040;-68
2022/02/22 13:01:11;;;;;;;6.30;2.97;;;;;;;;;;5014043;28;20038;-71
2022/02/22 13:03:43;;;;;;;7.75;2.38;;;;;;;;;;5019865;28;20046;-68
2022/02/22 13:06:11;;;;;;;8.32;1.90;;;;;;;;;;5016002;28;20504;-72
2022/02/22 13:08:39;;;;;;;8.18;2.05;;;;;;;;;;5013570;28;20077;-68
2022/02/22 13:11:06;;;;;;;6.80;1.88;;;;;;;;;;5024980;28;20045;-69
2022/02/22 13:13:36;;;;;;;8.05;2.35;;;;;;;;;;5025049;28;20080;-71
2022/02/22 13:16:14;;;;;;;6.97;2.10;;;;;;;;;;5024727;28;20033;-73
2022/02/22 13:18:52;;;;;;;6.43;2.25;;;;;;;;;;5024321;28;20199;-69
2022/02/22 13:21:20;;;;;;;3.45;1.38;;;;;;;;;;5024173;28;20047;-68
2022/02/22 13:23:48;;;;;;;4.57;1.33;;;;;;;;;;5022625;28;20038;-69
2022/02/22 13:26:16;;;;;;;5.88;1.88;;;;;;;;;;5022403;28;20049;-69
2022/02/22 13:28:44;;;;;;;7.70;1.67;;;;;;;;;;5021218;28;20050;-69
2022/02/22 13:31:31;;;;;;;7.93;2.08;;;;;;;;;;5011335;28;20437;-72
2022/02/22 13:34:03;;;;;;;8.77;1.77;;;;;;;;;;5016657;28;20460;-71
2022/02/22 13:36:32;;;;;;;5.90;1.40;;;;;;;;;;5017168;28;20081;-69
2022/02/22 13:39:05;;;;;;;8.77;2.63;;;;;;;;;;5016840;28;20049;-71
2022/02/22 13:41:34;;;;;;;8.18;1.70;;;;;;;;;;5017006;28;20036;-71
2022/02/22 13:44:03;;;;;;;8.63;1.63;;;;;;;;;;5038619;28;20501;-71
2022/02/22 13:46:35;;;;;;;9.18;1.70;;;;;;;;;;5039743;28;20500;-69
2022/02/22 13:49:04;;;;;;;4.57;1.50;;;;;;;;;;5012336;28;20064;-69
2022/02/22 13:51:46;;;;;;;8.07;1.55;;;;;;;;;;5018331;28;20037;-71
2022/02/22 13:54:18;;;;;;;5.88;1.02;;;;;;;;;;5012584;28;20048;-72
2022/02/22 13:56:55;;;;;;;7.43;1.50;;;;;;;;;;5012711;28;20044;-69
2022/02/22 13:59:32;;;;;;;7.70;1.75;;;;;;;;;;5012441;28;20045;-70
2022/02/22 14:02:00;;;;;;;7.50;2.05;;;;;;;;;;5011516;28;20436;-69
2022/02/22 14:04:35;;;;;;;9.07;1.65;;;;;;;;;;5012597;28;20042;-72
2022/02/22 14:07:05;;;;;;;6.22;1.10;;;;;;;;;;5012358;28;20045;-71
2022/02/22 14:09:34;;;;;;;8.35;1.65;;;;;;;;;;5012763;28;20096;-71
2022/02/22 14:12:02;;;;;;;4.13;1.40;;;;;;;;;;5015237;28;20502;-73
2022/02/22 14:14:30;;;;;;;7.72;1.27;;;;;;;;;;5012727;28;20045;-70
2022/02/22 14:16:58;;;;;;;7.30;1.40;;;;;;;;;;5012363;28;20034;-69
2022/02/22 14:31:08;;;;;;;6.47;1.57;;;;;;;;;;4998509;28;20124;-71
2022/02/22 14:33:36;;;;;;;9.05;1.70;;;;;;;;;;5042633;28;20360;-73
2022/02/22 14:36:04;;;;;;;6.57;1.48;;;;;;;;;;5039442;28;20559;-72
2022/02/22 14:38:32;;;;;;;5.80;1.63;;;;;;;;;;5042152;28;20029;-72
2022/02/22 14:40:59;;;;;;;6.72;1.60;;;;;;;;;;5042677;28;20040;-72
2022/02/22 14:43:27;;;;;;;4.93;1.55;;;;;;;;;;5038611;28;20045;-69
2022/02/22 14:45:57;;;;;;;5.75;1.70;;;;;;;;;;5041693;28;20503;-72
2022/02/22 14:48:26;;;;;;;10.07;1.50;;;;;;;;;;5042851;28;20523;-69
2022/02/22 14:50:54;;;;;;;4.75;1.40;;;;;;;;;;5042349;28;20029;-70
2022/02/22 14:53:23;;;;;;;10.93;1.83;;;;;;;;;;5041036;28;20057;-68
2022/02/22 14:55:50;;;;;;;4.70;1.60;;;;;;;;;;5036883;28;20029;-67
2022/02/22 14:58:19;;;;;;;6.22;1.25;;;;;;;;;;5042744;28;20116;-69
2022/02/22 15:00:47;;;;;;;6.82;1.42;;;;;;;;;;5040776;28;20140;-68
2022/02/22 15:03:15;;;;;;;4.70;1.30;;;;;;;;;;5038119;28;20182;-71